Time;durP1;ratioP1;P1;durP2;ratioP2;P2;SDS_P1;SDS_P2;PMS_P1;PMS_P2;Temp;Humidity;BMP_temperature;BMP_pressure;BME280_temperature;BME280_humidity;BME280_pressure;Samples;Min_cycle;Max_cycle;Signal;HPM_P1;HPM_P2
2024/02/27 00:00:54;;;;;;;3.58;2.92;;;;;;;3.04;100.00;100816.19;5044713;28;20087;-67
2024/02/27 00:03:20;;;;;;;11.23;2.88;;;;;;;3.06;100.00;100813.69;5043277;28;20105;-67
2024/02/27 00:05:46;;;;;;;7.28;2.92;;;;;;;3.10;100.00;100815.50;5044731;28;20034;-67
2024/02/27 00:08:11;;;;;;;5.55;2.92;;;;;;;3.05;100.00;100802.53;5044777;28;20029;-67
2024/02/27 00:10:36;;;;;;;3.00;2.80;;;;;;;3.10;100.00;100805.22;5043178;28;20049;-66
2024/02/27 00:13:02;;;;;;;4.82;3.78;;;;;;;3.06;100.00;100812.00;5042939;28;20059;-67
2024/02/27 00:15:27;;;;;;;4.57;2.30;;;;;;;2.98;100.00;100810.88;5044626;28;20477;-66
2024/02/27 00:17:53;;;;;;;3.58;2.63;;;;;;;2.92;100.00;100815.84;5044552;28;20334;-67
2024/02/27 00:20:18;;;;;;;9.38;2.80;;;;;;;2.88;100.00;100820.00;5044565;28;20097;-67
2024/02/27 00:22:44;;;;;;;8.43;3.75;;;;;;;2.85;100.00;100819.91;5044499;28;20049;-67
2024/02/27 00:25:10;;;;;;;8.52;4.35;;;;;;;2.85;100.00;100831.06;5044415;28;20084;-67
2024/02/27 00:27:36;;;;;;;7.85;3.50;;;;;;;2.87;100.00;100840.47;5044641;28;20025;-67
2024/02/27 00:30:03;;;;;;;6.95;4.03;;;;;;;2.88;100.00;100831.94;5044579;28;20108;-66
2024/02/27 00:32:28;;;;;;;2.35;2.20;;;;;;;2.92;100.00;100831.22;5043073;28;20045;-68
2024/02/27 00:34:54;;;;;;;7.22;3.08;;;;;;;3.01;100.00;100840.88;5044550;28;20041;-68
2024/02/27 00:37:19;;;;;;;3.22;2.90;;;;;;;2.99;100.00;100837.41;5044521;28;20094;-66
2024/02/27 00:39:44;;;;;;;4.30;3.88;;;;;;;3.02;100.00;100840.06;5044662;28;20056;-66
2024/02/27 00:42:10;;;;;;;4.55;2.47;;;;;;;3.00;100.00;100837.47;5044328;28;20028;-67
2024/02/27 00:44:38;;;;;;;4.85;2.80;;;;;;;3.00;100.00;100845.16;5044302;28;20504;-67
2024/02/27 00:47:03;;;;;;;2.25;1.92;;;;;;;2.99;100.00;100845.13;5044427;28;20026;-67
2024/02/27 00:49:29;;;;;;;5.05;1.90;;;;;;;2.94;100.00;100839.84;5044152;28;20060;-67
2024/02/27 00:51:55;;;;;;;2.67;2.38;;;;;;;3.00;100.00;100846.84;5044399;28;20243;-66
2024/02/27 00:54:21;;;;;;;11.77;3.17;;;;;;;2.98;100.00;100851.94;5043076;28;20025;-66
2024/02/27 00:56:46;;;;;;;3.58;3.00;;;;;;;2.94;100.00;100848.41;5044410;28;20056;-66
2024/02/27 00:59:11;;;;;;;3.67;2.97;;;;;;;2.95;100.00;100856.97;5042917;28;20101;-67
2024/02/27 01:01:37;;;;;;;4.15;3.17;;;;;;;2.95;100.00;100852.72;5046863;28;20025;-67
2024/02/27 01:04:03;;;;;;;8.25;2.17;;;;;;;2.89;100.00;100851.66;5046335;28;20026;-67
2024/02/27 01:06:28;;;;;;;2.58;2.38;;;;;;;2.91;100.00;100855.13;5047585;28;20027;-67
2024/02/27 01:08:53;;;;;;;6.43;4.63;;;;;;;2.84;100.00;100851.53;5047661;28;20017;-67
2024/02/27 01:11:19;;;;;;;10.38;2.65;;;;;;;2.87;100.00;100854.19;5047428;28;20025;-66
2024/02/27 01:13:44;;;;;;;3.72;1.83;;;;;;;2.85;100.00;100856.69;5047590;28;20032;-65
2024/02/27 01:16:09;;;;;;;5.05;2.80;;;;;;;2.83;100.00;100854.88;5047690;28;20406;-68
2024/02/27 01:18:35;;;;;;;2.95;2.75;;;;;;;2.79;100.00;100858.19;5046233;28;20048;-65
2024/02/27 01:21:02;;;;;;;1.50;1.40;;;;;;;2.85;100.00;100866.06;5047568;28;20025;-66
2024/02/27 01:23:27;;;;;;;4.40;2.80;;;;;;;2.83;100.00;100855.78;5046078;28;20029;-67
2024/02/27 01:25:52;;;;;;;5.10;2.75;;;;;;;2.84;100.00;100859.22;5046085;28;20017;-67
2024/02/27 01:28:18;;;;;;;5.28;3.10;;;;;;;2.88;100.00;100855.03;5047213;28;20083;-67
2024/02/27 01:30:43;;;;;;;2.80;1.85;;;;;;;2.85;100.00;100853.25;5047599;28;20025;-67
2024/02/27 01:33:09;;;;;;;2.80;2.60;;;;;;;2.90;100.00;100854.28;5047215;28;20025;-67
2024/02/27 01:35:34;;;;;;;2.22;1.67;;;;;;;2.85;100.00;100856.69;5047214;28;20021;-67
2024/02/27 01:37:59;;;;;;;3.95;1.42;;;;;;;2.88;100.00;100848.22;5047216;28;20040;-67
2024/02/27 01:40:25;;;;;;;3.25;2.35;;;;;;;2.89;100.00;100847.38;5045912;28;20021;-67
2024/02/27 01:42:50;;;;;;;2.17;1.58;;;;;;;2.87;100.00;100843.03;5047252;28;20025;-67
2024/02/27 01:45:23;;;;;;;3.28;2.95;;;;;;;2.91;100.00;100853.44;5045416;28;20520;-67
2024/02/27 01:47:51;;;;;;;1.38;1.35;;;;;;;2.89;100.00;100849.94;5046999;28;20025;-66
2024/02/27 01:50:17;;;;;;;5.07;2.58;;;;;;;2.89;100.00;100855.06;5045808;28;20025;-67
2024/02/27 01:52:45;;;;;;;1.25;1.20;;;;;;;2.77;100.00;100839.31;5046940;28;20022;-67
2024/02/27 01:55:11;;;;;;;2.80;2.58;;;;;;;2.84;100.00;100848.97;5045548;28;20511;-66
2024/02/27 01:57:37;;;;;;;4.80;2.85;;;;;;;2.84;100.00;100852.38;5047095;28;20033;-67
2024/02/27 02:00:09;;;;;;;3.35;1.60;;;;;;;2.88;100.00;100845.66;5045370;28;20026;-66
2024/02/27 02:02:37;;;;;;;6.07;2.28;;;;;;;2.92;100.00;100852.63;5045411;28;20022;-67
2024/02/27 02:05:04;;;;;;;3.22;1.83;;;;;;;2.94;100.00;100835.56;5046528;28;20044;-68
2024/02/27 02:07:30;;;;;;;6.03;2.35;;;;;;;3.00;100.00;100842.59;5046813;28;20025;-67
2024/02/27 02:09:57;;;;;;;4.40;3.42;;;;;;;3.02;100.00;100855.47;5045308;28;20025;-66
2024/02/27 02:12:22;;;;;;;4.97;2.75;;;;;;;2.95;100.00;100845.03;5046442;28;20025;-66
2024/02/27 02:14:48;;;;;;;6.25;2.65;;;;;;;3.03;100.00;100859.75;5046229;28;20025;-66
2024/02/27 02:17:13;;;;;;;5.70;1.90;;;;;;;3.01;100.00;100856.28;5045258;28;20022;-67
2024/02/27 02:19:39;;;;;;;2.50;2.25;;;;;;;3.02;100.00;100852.91;5046330;28;20021;-67
2024/02/27 02:22:04;;;;;;;3.80;3.50;;;;;;;3.08;100.00;100858.22;5046196;28;20025;-67
2024/02/27 02:24:31;;;;;;;5.15;2.95;;;;;;;3.11;100.00;100868.56;5046249;28;20377;-67
2024/02/27 02:26:57;;;;;;;12.93;2.00;;;;;;;2.80;100.00;100821.47;5046468;28;20033;-67
2024/02/27 02:29:23;;;;;;;2.88;2.67;;;;;;;3.03;100.00;100855.50;5046094;28;20048;-68
2024/02/27 02:31:48;;;;;;;2.67;2.47;;;;;;;3.01;100.00;100862.28;5046285;28;20100;-67
2024/02/27 02:34:13;;;;;;;1.65;1.55;;;;;;;2.99;100.00;100861.34;5044734;28;20025;-68
2024/02/27 02:36:42;;;;;;;3.15;2.53;;;;;;;2.96;100.00;100859.59;5046119;28;20276;-67
2024/02/27 02:39:07;;;;;;;2.63;2.42;;;;;;;2.92;100.00;100855.19;5046217;28;20033;-67
2024/02/27 02:41:32;;;;;;;4.82;1.90;;;;;;;2.96;100.00;100856.13;5044666;28;20053;-67
2024/02/27 02:43:58;;;;;;;2.35;1.67;;;;;;;2.99;100.00;100856.22;5044512;28;20021;-67
2024/02/27 02:46:23;;;;;;;3.10;2.17;;;;;;;2.96;100.00;100853.56;5045940;28;20022;-67
2024/02/27 02:48:49;;;;;;;1.75;1.48;;;;;;;2.93;100.00;100848.34;5045866;28;20029;-68
2024/02/27 02:51:14;;;;;;;1.73;1.63;;;;;;;3.01;100.00;100854.59;5045998;28;20029;-68
2024/02/27 02:53:39;;;;;;;3.17;2.15;;;;;;;3.02;100.00;100848.63;5045820;28;20048;-67
2024/02/27 02:56:05;;;;;;;2.08;1.88;;;;;;;3.01;100.00;100857.16;5044456;28;20033;-68
2024/02/27 02:58:30;;;;;;;1.75;1.35;;;;;;;3.00;100.00;100854.53;5044151;28;20029;-68
2024/02/27 03:00:56;;;;;;;4.88;2.10;;;;;;;2.97;100.00;100857.91;5045880;28;20028;-68
2024/02/27 03:03:21;;;;;;;1.50;1.40;;;;;;;3.02;100.00;100865.72;5044370;28;20029;-67
2024/02/27 03:05:47;;;;;;;5.35;2.08;;;;;;;3.00;100.00;100859.69;5045664;28;20071;-67
2024/02/27 03:08:12;;;;;;;1.27;1.20;;;;;;;3.04;100.00;100864.06;5044257;28;20044;-67
2024/02/27 03:10:38;;;;;;;1.33;1.23;;;;;;;3.01;100.00;100869.09;5045612;28;20397;-67
2024/02/27 03:13:03;;;;;;;0.88;0.82;;;;;;;3.00;100.00;100868.25;5044071;28;20025;-67
2024/02/27 03:15:30;;;;;;;2.63;1.10;;;;;;;2.94;100.00;100852.69;5045454;28;20044;-67
2024/02/27 03:17:55;;;;;;;12.27;0.93;;;;;;;2.95;100.00;100855.28;5045440;28;20026;-66
2024/02/27 03:20:21;;;;;;;2.25;2.05;;;;;;;2.93;100.00;100862.06;5045712;28;20025;-67
2024/02/27 03:22:46;;;;;;;1.23;0.82;;;;;;;2.91;100.00;100863.69;5044830;28;20025;-67
2024/02/27 03:25:11;;;;;;;1.75;1.65;;;;;;;2.90;100.00;100869.66;5045099;28;20130;-68
2024/02/27 03:27:38;;;;;;;4.22;1.50;;;;;;;2.82;100.00;100859.16;5043772;28;20025;-68
2024/02/27 03:30:04;;;;;;;1.85;1.40;;;;;;;2.84;100.00;100861.78;5044982;28;20068;-67
2024/02/27 03:32:30;;;;;;;2.38;2.17;;;;;;;2.81;100.00;100859.97;5045386;28;20211;-67
2024/02/27 03:34:55;;;;;;;0.57;0.57;;;;;;;2.70;100.00;100846.81;5043785;28;20388;-66
2024/02/27 03:37:20;;;;;;;0.82;0.75;;;;;;;2.68;100.00;100850.19;5045208;28;20560;-66
2024/02/27 03:39:46;;;;;;;0.82;0.82;;;;;;;2.71;100.00;100846.03;5044017;28;20067;-67
2024/02/27 03:42:11;;;;;;;2.28;2.08;;;;;;;2.79;100.00;100850.50;5044858;28;20112;-67
2024/02/27 03:44:36;;;;;;;1.73;1.63;;;;;;;2.82;100.00;100853.16;5045017;28;20029;-67
2024/02/27 03:47:03;;;;;;;0.82;0.80;;;;;;;2.83;100.00;100860.03;5045152;28;20044;-67
2024/02/27 03:49:28;;;;;;;0.50;0.50;;;;;;;2.75;100.00;100841.84;5044921;28;20097;-67
2024/02/27 03:51:53;;;;;;;0.80;0.80;;;;;;;2.83;100.00;100854.88;5045294;28;20022;-67
2024/02/27 03:54:19;;;;;;;0.60;0.60;;;;;;;2.82;100.00;100851.47;5044688;28;20437;-67
2024/02/27 03:56:44;;;;;;;0.90;0.90;;;;;;;2.77;100.00;100849.56;5045004;28;20492;-67
2024/02/27 03:59:11;;;;;;;0.70;0.70;;;;;;;2.78;100.00;100851.34;5043309;28;20017;-67
2024/02/27 04:01:36;;;;;;;0.75;0.75;;;;;;;2.78;100.00;100852.19;5043388;28;20022;-67
2024/02/27 04:04:01;;;;;;;1.58;0.90;;;;;;;2.71;100.00;100833.19;5044817;28;20040;-69
2024/02/27 04:06:27;;;;;;;1.05;1.05;;;;;;;2.81;100.00;100851.44;5044814;28;20089;-67
2024/02/27 04:08:52;;;;;;;1.20;0.93;;;;;;;2.83;100.00;100855.78;5044839;28;20025;-67
2024/02/27 04:11:17;;;;;;;0.75;0.63;;;;;;;2.79;100.00;100848.81;5044979;28;20449;-67
2024/02/27 04:13:43;;;;;;;5.50;1.08;;;;;;;2.79;100.00;100841.13;5044543;28;20105;-67
2024/02/27 04:16:08;;;;;;;2.25;0.75;;;;;;;2.79;100.00;100851.38;5044805;28;20016;-67
2024/02/27 04:18:34;;;;;;;1.15;1.05;;;;;;;2.83;100.00;100857.44;5044700;28;20030;-67
2024/02/27 04:20:59;;;;;;;1.00;0.93;;;;;;;2.81;100.00;100848.88;5044743;28;20095;-67
2024/02/27 04:23:25;;;;;;;0.95;0.90;;;;;;;2.78;100.00;100859.88;5044581;28;20501;-67
2024/02/27 04:25:50;;;;;;;1.00;0.90;;;;;;;2.82;100.00;100869.44;5044732;28;20026;-67
2024/02/27 04:28:16;;;;;;;2.35;1.48;;;;;;;2.80;100.00;100872.75;5044688;28;20087;-67
2024/02/27 04:30:41;;;;;;;2.83;1.67;;;;;;;2.81;100.00;100867.66;5044608;28;20048;-68
2024/02/27 04:33:06;;;;;;;0.93;0.93;;;;;;;2.75;100.00;100869.19;5043283;28;20088;-67
2024/02/27 04:35:32;;;;;;;1.05;0.90;;;;;;;2.71;100.00;100860.53;5044368;28;20421;-67
2024/02/27 04:37:57;;;;;;;0.88;0.88;;;;;;;2.72;100.00;100865.69;5046765;28;20021;-67
2024/02/27 04:40:22;;;;;;;4.57;1.15;;;;;;;2.76;100.00;100866.69;5048236;28;20033;-67
2024/02/27 04:42:48;;;;;;;1.50;1.10;;;;;;;2.84;100.00;100874.59;5048315;28;20473;-67
2024/02/27 04:45:13;;;;;;;1.52;1.02;;;;;;;2.82;100.00;100860.84;5048000;28;20112;-67
2024/02/27 04:47:38;;;;;;;1.48;1.38;;;;;;;2.84;100.00;100875.44;5048222;28;20032;-67
2024/02/27 04:50:04;;;;;;;2.15;1.65;;;;;;;2.82;100.00;100878.81;5047976;28;20089;-66
2024/02/27 04:52:29;;;;;;;1.45;0.82;;;;;;;2.76;100.00;100881.19;5047996;28;20040;-67
2024/02/27 04:54:55;;;;;;;1.15;1.15;;;;;;;2.70;100.00;100874.19;5047940;28;20056;-67
2024/02/27 04:57:22;;;;;;;1.27;1.00;;;;;;;2.59;100.00;100869.56;5048005;28;20021;-68
2024/02/27 04:59:48;;;;;;;0.82;0.82;;;;;;;2.63;100.00;100883.34;5047721;28;20024;-66
2024/02/27 05:02:13;;;;;;;0.80;0.80;;;;;;;2.67;100.00;100886.91;5047884;28;20108;-67
2024/02/27 05:04:39;;;;;;;0.73;0.73;;;;;;;2.58;100.00;100865.28;5046606;28;20017;-67
2024/02/27 05:07:04;;;;;;;0.50;0.50;;;;;;;2.63;100.00;100869.66;5047685;28;20041;-67
2024/02/27 05:09:30;;;;;;;0.70;0.70;;;;;;;2.71;100.00;100881.91;5047866;28;20558;-67
2024/02/27 05:11:55;;;;;;;3.03;1.52;;;;;;;2.80;100.00;100881.31;5046045;28;20025;-67
2024/02/27 05:14:20;;;;;;;0.60;0.60;;;;;;;2.83;100.00;100883.09;5047564;28;20027;-67
2024/02/27 05:16:46;;;;;;;1.40;1.17;;;;;;;2.88;100.00;100879.00;5047803;28;20022;-68
2024/02/27 05:19:11;;;;;;;0.77;0.77;;;;;;;2.90;100.00;100879.03;5047702;28;20526;-67
2024/02/27 05:21:37;;;;;;;2.47;1.00;;;;;;;2.87;100.00;100878.94;5047596;28;20053;-68
2024/02/27 05:24:02;;;;;;;1.00;0.77;;;;;;;2.86;100.00;100878.06;5047779;28;20017;-67
2024/02/27 05:26:28;;;;;;;1.08;0.98;;;;;;;2.81;100.00;100870.22;5046116;28;20489;-68
2024/02/27 05:28:53;;;;;;;0.93;0.93;;;;;;;2.80;100.00;100873.63;5047339;28;20025;-68
2024/02/27 05:31:28;;;;;;;1.23;1.13;;;;;;;2.73;100.00;100874.28;5047378;28;20045;-69
2024/02/27 05:33:56;;;;;;;0.75;0.75;;;;;;;2.73;100.00;100866.56;5047115;28;20040;-68
2024/02/27 05:36:23;;;;;;;0.52;0.52;;;;;;;2.71;100.00;100884.47;5047104;28;20081;-67
2024/02/27 05:38:50;;;;;;;1.05;0.75;;;;;;;2.69;100.00;100873.28;5047226;28;20017;-67
2024/02/27 05:41:17;;;;;;;0.60;0.60;;;;;;;2.67;100.00;100882.63;5047193;28;20022;-67
2024/02/27 05:43:43;;;;;;;1.63;1.15;;;;;;;2.69;100.00;100880.09;5045439;28;20108;-67
2024/02/27 05:46:09;;;;;;;0.70;0.70;;;;;;;2.67;100.00;100879.22;5046653;28;20026;-67
2024/02/27 05:48:38;;;;;;;1.33;1.23;;;;;;;2.74;100.00;100888.81;5047092;28;20029;-67
2024/02/27 05:51:04;;;;;;;1.02;0.95;;;;;;;2.77;100.00;100886.34;5046829;28;20112;-67
2024/02/27 05:53:31;;;;;;;1.02;1.02;;;;;;;2.83;100.00;100880.53;5046535;28;20032;-68
2024/02/27 05:55:57;;;;;;;0.65;0.65;;;;;;;2.82;100.00;100876.25;5045592;28;20065;-68
2024/02/27 05:58:24;;;;;;;0.63;0.63;;;;;;;2.85;100.00;100887.47;5046867;28;20083;-68
2024/02/27 06:00:54;;;;;;;0.60;0.60;;;;;;;2.88;100.00;100889.25;5046920;28;20032;-68
2024/02/27 06:03:20;;;;;;;0.60;0.60;;;;;;;2.85;100.00;100890.03;5047079;28;20048;-67
2024/02/27 06:05:45;;;;;;;1.00;1.00;;;;;;;2.84;100.00;100900.25;5046945;28;20029;-68
2024/02/27 06:08:12;;;;;;;1.05;0.90;;;;;;;2.77;100.00;100894.03;5046966;28;20033;-69
2024/02/27 06:10:39;;;;;;;0.55;0.55;;;;;;;2.79;100.00;100899.22;5046780;28;20021;-68
2024/02/27 06:13:05;;;;;;;0.70;0.68;;;;;;;2.75;100.00;100895.69;5045115;28;20036;-67
2024/02/27 06:15:30;;;;;;;0.50;0.50;;;;;;;2.73;100.00;100894.78;5045034;28;20025;-67
2024/02/27 06:17:55;;;;;;;1.08;0.98;;;;;;;2.77;100.00;100901.75;5046822;28;20025;-67
2024/02/27 06:23:05;;;;;;;1.00;0.90;;;;;;;2.81;100.00;100895.88;5046466;28;20037;-65
2024/02/27 06:25:30;;;;;;;0.98;0.93;;;;;;;2.81;100.00;100895.03;5046377;28;20021;-66
2024/02/27 06:27:56;;;;;;;1.80;1.08;;;;;;;2.82;100.00;100900.19;5046166;28;20030;-66
2024/02/27 06:30:21;;;;;;;0.85;0.85;;;;;;;2.83;100.00;100898.47;5044812;28;20022;-65
2024/02/27 06:32:47;;;;;;;1.25;1.15;;;;;;;2.88;100.00;100902.06;5046364;28;20025;-66
2024/02/27 06:35:12;;;;;;;1.35;1.27;;;;;;;2.93;100.00;100892.84;5046169;28;20028;-65
2024/02/27 06:37:39;;;;;;;1.52;1.23;;;;;;;2.82;100.00;100865.97;5045983;28;20481;-65
2024/02/27 06:40:05;;;;;;;1.35;1.25;;;;;;;2.79;99.22;100887.28;5046244;28;20021;-65
2024/02/27 06:42:36;;;;;;;0.73;0.73;;;;;;;2.69;97.91;100885.22;5045952;28;20671;-65
2024/02/27 06:45:02;;;;;;;0.50;0.50;;;;;;;2.60;98.52;100885.81;5045893;28;20163;-65
2024/02/27 06:47:28;;;;;;;1.10;1.00;;;;;;;2.62;99.22;100884.16;5045885;28;20109;-64
2024/02/27 06:49:56;;;;;;;0.75;0.75;;;;;;;2.67;99.89;100887.75;5044499;28;20029;-64
2024/02/27 06:52:22;;;;;;;1.50;1.00;;;;;;;2.75;100.00;100892.28;5045881;28;20081;-65
2024/02/27 06:54:48;;;;;;;1.35;1.25;;;;;;;2.80;100.00;100893.25;5045936;28;20076;-64
2024/02/27 06:57:13;;;;;;;3.25;1.23;;;;;;;2.78;99.94;100893.22;5045787;28;20026;-64
2024/02/27 06:59:38;;;;;;;1.48;1.40;;;;;;;2.77;99.77;100893.16;5044936;28;20029;-64
2024/02/27 07:02:05;;;;;;;0.60;0.60;;;;;;;2.70;100.00;100876.75;5045964;28;20466;-64
2024/02/27 07:04:30;;;;;;;5.53;1.48;;;;;;;2.70;100.00;100887.00;5045972;28;20017;-64
2024/02/27 07:06:55;;;;;;;1.92;1.38;;;;;;;2.63;100.00;100878.22;5045817;28;20032;-64
2024/02/27 07:09:21;;;;;;;1.63;1.25;;;;;;;2.66;100.00;100880.88;5045754;28;20018;-66
2024/02/27 07:11:46;;;;;;;1.60;1.50;;;;;;;2.71;100.00;100879.34;5045615;28;20075;-65
2024/02/27 07:14:12;;;;;;;0.98;0.85;;;;;;;2.70;100.00;100879.31;5045462;28;20025;-65
2024/02/27 07:16:37;;;;;;;0.95;0.95;;;;;;;2.71;99.96;100881.91;5044238;28;20469;-65
2024/02/27 07:19:03;;;;;;;0.75;0.75;;;;;;;2.69;98.76;100885.22;5044193;28;20026;-65
2024/02/27 07:21:28;;;;;;;0.60;0.60;;;;;;;2.63;97.67;100885.91;5045635;28;20025;-65
2024/02/27 07:23:54;;;;;;;0.93;0.90;;;;;;;2.58;98.27;100884.91;5045457;28;20045;-64
2024/02/27 07:26:19;;;;;;;0.60;0.60;;;;;;;2.68;99.16;100884.38;5045209;28;20064;-63
2024/02/27 07:28:45;;;;;;;1.30;1.10;;;;;;;2.71;99.37;100881.03;5045088;28;20025;-64
2024/02/27 07:31:10;;;;;;;0.98;0.82;;;;;;;2.78;100.00;100875.25;5045462;28;20029;-65
2024/02/27 07:33:36;;;;;;;0.95;0.90;;;;;;;2.88;100.00;100885.81;5045333;28;20022;-65
2024/02/27 07:36:01;;;;;;;1.10;1.00;;;;;;;2.97;100.00;100886.13;5043901;28;20037;-65
2024/02/27 07:38:27;;;;;;;1.25;0.63;;;;;;;3.08;100.00;100894.97;5045059;28;20053;-65
2024/02/27 07:40:52;;;;;;;1.10;0.95;;;;;;;3.16;100.00;100896.94;5045268;28;20085;-65
2024/02/27 07:43:18;;;;;;;1.23;1.15;;;;;;;3.16;100.00;100887.53;5044989;28;20075;-65
2024/02/27 07:45:43;;;;;;;0.75;0.75;;;;;;;3.22;100.00;100886.84;5050803;23;20049;-72
2024/02/27 07:48:09;;;;;;;0.70;0.70;;;;;;;3.27;100.00;100884.41;5054641;23;20509;-66
2024/02/27 07:50:34;;;;;;;1.30;1.20;;;;;;;3.27;100.00;100890.44;5044581;28;20025;-65
2024/02/27 07:53:00;;;;;;;1.60;1.05;;;;;;;3.34;100.00;100896.59;5044761;28;20025;-65
2024/02/27 07:55:26;;;;;;;1.10;1.00;;;;;;;3.34;100.00;100888.88;5045170;28;20079;-65
2024/02/27 07:57:51;;;;;;;0.60;0.60;;;;;;;3.34;100.00;100894.91;5044863;28;20033;-64
2024/02/27 08:00:17;;;;;;;12.90;0.82;;;;;;;3.33;100.00;100900.00;5044945;28;20025;-64
2024/02/27 08:02:43;;;;;;;0.73;0.73;;;;;;;3.37;100.00;100901.81;5027376;28;20024;-64
2024/02/27 08:05:08;;;;;;;0.80;0.80;;;;;;;3.43;100.00;100906.25;5045041;28;20025;-64
2024/02/27 08:07:34;;;;;;;0.57;0.52;;;;;;;3.41;100.00;100901.09;5044938;28;20029;-64
2024/02/27 08:09:59;;;;;;;0.75;0.70;;;;;;;3.34;100.00;100910.28;5046993;28;20017;-64
2024/02/27 08:12:24;;;;;;;0.55;0.52;;;;;;;3.32;100.00;100905.97;5031148;28;20112;-64
2024/02/27 08:14:50;;;;;;;0.82;0.82;;;;;;;3.29;100.00;100908.44;5057186;23;20072;-65
2024/02/27 08:17:15;;;;;;;2.17;1.48;;;;;;;3.27;100.00;100910.94;5058451;23;20081;-71
2024/02/27 08:19:41;;;;;;;0.85;0.85;;;;;;;3.36;100.00;100925.75;5035159;23;20026;-65
2024/02/27 08:22:06;;;;;;;0.63;0.63;;;;;;;3.32;100.00;100916.22;5028940;28;20091;-65
2024/02/27 08:24:33;;;;;;;1.63;1.45;;;;;;;3.31;100.00;100922.16;5029219;28;20018;-65
2024/02/27 08:26:58;;;;;;;1.35;0.90;;;;;;;3.55;100.00;100933.97;5028829;28;20481;-65
2024/02/27 08:29:24;;;;;;;2.25;1.10;;;;;;;3.57;100.00;100930.66;5045617;23;20065;-67
2024/02/27 08:32:05;;;;;;;1.00;0.60;;;;;;;3.65;100.00;100941.13;5069563;23;20058;-64
2024/02/27 08:34:30;;;;;;;0.60;0.60;;;;;;;3.60;100.00;100935.00;5048629;28;20045;-65
2024/02/27 08:36:56;;;;;;;1.50;1.15;;;;;;;3.51;100.00;100937.28;5048692;28;20092;-65
2024/02/27 08:39:21;;;;;;;0.50;0.50;;;;;;;3.52;100.00;100936.47;5048610;28;20021;-64
2024/02/27 08:41:47;;;;;;;1.20;1.10;;;;;;;3.49;100.00;100932.13;5048561;28;20029;-65
2024/02/27 08:44:12;;;;;;;1.35;0.98;;;;;;;3.49;100.00;100941.50;5048031;28;20027;-65
2024/02/27 08:46:39;;;;;;;0.98;0.95;;;;;;;3.55;100.00;100931.41;5070004;23;20061;-64
2024/02/27 08:49:05;;;;;;;1.30;1.25;;;;;;;3.43;100.00;100913.97;5060947;23;20323;-64
2024/02/27 08:51:31;;;;;;;1.30;1.10;;;;;;;3.53;100.00;100927.94;5048017;28;20029;-64
2024/02/27 08:53:57;;;;;;;1.10;1.00;;;;;;;3.59;100.00;100933.25;5048325;28;20067;-64
2024/02/27 08:56:22;;;;;;;1.45;1.35;;;;;;;3.59;100.00;100923.00;5048319;28;20026;-65
2024/02/27 08:58:47;;;;;;;1.33;1.15;;;;;;;3.75;100.00;100934.56;5047789;28;20026;-66
2024/02/27 09:01:13;;;;;;;0.88;0.88;;;;;;;3.81;100.00;100931.28;5048325;28;20025;-65
2024/02/27 09:03:41;;;;;;;1.38;1.20;;;;;;;3.89;100.00;100909.25;5054045;23;20060;-67
2024/02/27 09:06:09;;;;;;;1.55;1.25;;;;;;;3.96;100.00;100907.75;5047710;28;20487;-68
2024/02/27 09:08:34;;;;;;;1.65;1.55;;;;;;;4.07;100.00;100908.03;5060362;23;20136;-65
2024/02/27 09:11:00;;;;;;;2.20;2.05;;;;;;;4.12;100.00;100908.13;5061830;23;20050;-68
2024/02/27 09:13:25;;;;;;;1.20;1.10;;;;;;;4.18;100.00;100903.16;5047611;28;20028;-68
2024/02/27 09:15:51;;;;;;;11.35;2.08;;;;;;;4.18;100.00;100904.03;5047750;28;20021;-69
2024/02/27 09:18:16;;;;;;;5.28;1.45;;;;;;;4.05;100.00;100897.69;5046187;28;20082;-68
2024/02/27 09:20:43;;;;;;;1.08;0.98;;;;;;;3.97;100.00;100883.78;5047206;28;20036;-68
2024/02/27 09:23:08;;;;;;;0.82;0.82;;;;;;;3.86;99.96;100898.03;5047327;28;20047;-67
2024/02/27 09:25:34;;;;;;;0.52;0.52;;;;;;;3.70;98.93;100898.50;5047505;28;20021;-68
2024/02/27 09:27:59;;;;;;;4.18;1.98;;;;;;;3.52;97.66;100897.94;5047623;28;20112;-68
2024/02/27 09:30:25;;;;;;;0.65;0.57;;;;;;;3.44;97.13;100898.59;5047442;28;20032;-68
2024/02/27 09:32:53;;;;;;;1.30;1.20;;;;;;;3.38;98.73;100902.69;5045942;28;20025;-67
2024/02/27 09:35:19;;;;;;;1.20;0.85;;;;;;;3.40;99.25;100901.94;5046275;28;20029;-67
2024/02/27 09:37:45;;;;;;;1.65;1.55;;;;;;;3.47;99.63;100903.84;5048175;28;20031;-67
2024/02/27 09:40:11;;;;;;;1.58;0.65;;;;;;;3.59;100.00;100898.16;5047240;28;20105;-67
2024/02/27 09:42:38;;;;;;;0.80;0.80;;;;;;;3.71;100.00;100905.34;5047395;28;20021;-68
2024/02/27 09:45:09;;;;;;;1.08;0.98;;;;;;;3.92;100.00;100900.75;5050968;23;20128;-65
2024/02/27 09:47:45;;;;;;;3.23;1.73;;;;;;;3.95;100.00;100893.13;5029213;28;20029;-65
2024/02/27 09:50:15;;;;;;;1.17;0.98;;;;;;;3.84;100.00;100887.72;5047029;28;20048;-65
2024/02/27 09:52:42;;;;;;;1.85;1.38;;;;;;;3.65;98.67;100864.09;5029201;28;20029;-65
2024/02/27 09:55:08;;;;;;;1.33;1.23;;;;;;;3.58;95.78;100898.13;5047304;28;20021;-65
2024/02/27 09:57:33;;;;;;;1.75;1.30;;;;;;;3.34;94.53;100887.19;5029093;28;20021;-65
2024/02/27 09:59:59;;;;;;;1.35;1.25;;;;;;;3.21;95.24;100890.25;5046895;28;20167;-64
2024/02/27 10:02:24;;;;;;;1.33;1.23;;;;;;;3.27;96.76;100889.53;5029250;28;20026;-64
2024/02/27 10:04:51;;;;;;;2.05;1.88;;;;;;;3.32;97.75;100891.41;5029099;28;20448;-64
2024/02/27 10:07:18;;;;;;;3.17;1.50;;;;;;;3.39;98.44;100892.47;5029027;28;20021;-65
2024/02/27 10:09:46;;;;;;;1.60;1.23;;;;;;;3.49;99.33;100885.91;5029232;28;20048;-65
2024/02/27 10:12:13;;;;;;;1.30;1.20;;;;;;;3.51;99.36;100884.25;5046798;28;20029;-65
2024/02/27 10:14:39;;;;;;;0.90;0.90;;;;;;;3.51;98.39;100893.66;5046629;28;20029;-66
2024/02/27 10:17:06;;;;;;;1.05;1.05;;;;;;;3.54;97.87;100893.72;5028886;28;20029;-65
2024/02/27 10:19:32;;;;;;;1.05;1.02;;;;;;;3.54;98.06;100889.47;5028866;28;20063;-65
2024/02/27 10:21:59;;;;;;;3.20;2.08;;;;;;;3.53;98.76;100886.88;5046660;28;20025;-64
2024/02/27 10:24:28;;;;;;;1.58;1.48;;;;;;;3.50;96.42;100897.06;5046862;28;20412;-64
2024/02/27 10:26:57;;;;;;;0.70;0.70;;;;;;;3.55;95.17;100892.91;5046552;28;20041;-65
2024/02/27 10:29:25;;;;;;;1.15;1.00;;;;;;;3.53;93.20;100885.16;5046423;28;20076;-64
2024/02/27 10:31:50;;;;;;;1.35;1.25;;;;;;;3.81;94.22;100885.06;5046694;28;20027;-64
2024/02/27 10:34:17;;;;;;;1.08;1.02;;;;;;;3.88;95.14;100884.41;5028603;28;20040;-66
2024/02/27 10:36:43;;;;;;;2.13;1.42;;;;;;;3.89;95.78;100874.97;5046314;28;20477;-65
2024/02/27 10:39:12;;;;;;;1.40;1.30;;;;;;;3.82;95.93;100879.97;5046097;28;20021;-64
2024/02/27 10:41:39;;;;;;;1.27;1.17;;;;;;;3.77;94.40;100890.94;5028472;28;20025;-65
2024/02/27 10:44:07;;;;;;;0.85;0.80;;;;;;;3.83;93.25;100876.56;5045909;28;20081;-65
2024/02/27 10:46:36;;;;;;;0.57;0.57;;;;;;;3.94;94.78;100879.44;5046113;28;20059;-64
2024/02/27 10:49:05;;;;;;;1.40;1.23;;;;;;;3.83;94.34;100873.13;5046102;28;20485;-65
2024/02/27 10:51:31;;;;;;;1.00;0.82;;;;;;;3.78;95.38;100873.00;5046086;28;20029;-64
2024/02/27 10:53:58;;;;;;;0.90;0.90;;;;;;;3.76;95.73;100868.66;5046084;28;20087;-65
2024/02/27 10:56:23;;;;;;;1.30;1.13;;;;;;;3.85;95.87;100874.03;5045965;28;20048;-64
2024/02/27 10:58:52;;;;;;;1.60;1.40;;;;;;;3.91;95.92;100875.91;5045744;28;20049;-65
2024/02/27 11:01:19;;;;;;;0.60;0.60;;;;;;;3.79;93.60;100877.31;5045969;28;20049;-64
2024/02/27 11:03:49;;;;;;;1.15;1.05;;;;;;;3.70;94.90;100870.25;5045852;28;20025;-65
2024/02/27 11:06:20;;;;;;;0.80;0.80;;;;;;;3.75;95.44;100875.50;5045777;28;20044;-63
2024/02/27 11:08:51;;;;;;;0.80;0.80;;;;;;;3.93;96.29;100876.81;5027899;28;20048;-65
2024/02/27 11:11:16;;;;;;;1.52;0.88;;;;;;;3.99;96.71;100866.72;5045823;28;20065;-64
2024/02/27 11:13:45;;;;;;;0.60;0.60;;;;;;;4.13;96.29;100864.50;5045614;28;20037;-64
2024/02/27 11:16:16;;;;;;;0.50;0.50;;;;;;;4.00;93.68;100870.13;5045534;28;20072;-63
2024/02/27 11:18:48;;;;;;;0.80;0.73;;;;;;;3.69;93.96;100859.94;5045530;28;20032;-64
2024/02/27 11:21:14;;;;;;;0.70;0.63;;;;;;;3.68;94.11;100860.72;5045680;28;20480;-64
2024/02/27 11:23:41;;;;;;;0.73;0.73;;;;;;;3.75;94.28;100866.91;5027707;28;20101;-65